.
WxDataArchive / Data Records for 2011-05-03
2011-05-02 May 2011 2011-05-04

Data Records for Tuesday, 03 May 2011

Time	Temp	Chill	HIndex	Humid	Dewpt	 Wind 	HiWind	WindDir	Rain 	Barom 
-----	----	-----	------	-----	-----	------	------	-------	-----	----- 
00:00	46.7	46.7	46.7	78	40.2	0	0	---	0.00	30.192 
00:05	46.7	46.7	46.7	78	40.2	0	0	---	0.00	30.192 
00:10	46.5	46.5	46.5	78	40.0	0	0	---	0.00	30.192 
00:15	46.5	46.5	46.5	78	40.0	0	0	---	0.00	30.185 
00:20	46.5	46.5	46.5	78	40.0	0	0	---	0.00	30.185 
00:25	46.5	46.5	46.5	78	40.0	0	0	---	0.00	30.185 
00:30	46.4	46.4	46.4	78	39.9	0	0	---	0.00	30.179 
00:35	46.4	46.4	46.4	78	39.9	0	0	---	0.00	30.179 
00:40	46.4	46.4	46.4	79	40.2	0	0	---	0.00	30.179 
00:45	46.4	46.4	46.4	79	40.2	0	0	---	0.00	30.178 
00:50	46.4	46.4	46.4	79	40.2	0	0	---	0.00	30.178 
00:55	46.2	46.2	46.2	79	40.1	0	0	---	0.00	30.178 
01:00	46.2	46.2	46.2	79	40.1	0	0	---	0.00	30.163 
01:05	46.2	46.2	46.2	79	40.1	0	0	---	0.00	30.163 
01:10	46.2	46.2	46.2	80	40.4	0	0	---	0.00	30.163 
01:15	46.1	46.1	46.1	79	40.0	0	0	---	0.00	30.164 
01:20	46.1	46.1	46.1	79	40.0	0	0	---	0.00	30.164 
01:25	46.1	46.1	46.1	79	40.0	0	0	---	0.00	30.164 
01:30	46.1	46.1	46.1	79	40.0	0	0	---	0.00	30.165 
01:35	46.1	46.1	46.1	80	40.3	0	0	---	0.00	30.165 
01:40	46.1	46.1	46.1	80	40.3	0	0	---	0.00	30.165 
01:45	46.1	46.1	46.1	81	40.6	0	0	---	0.00	30.164 
01:50	46.1	46.1	46.1	81	40.6	0	0	---	0.00	30.164 
01:55	46.1	46.1	46.1	81	40.6	0	0	---	0.00	30.164 
02:00	46.1	46.1	46.1	81	40.6	0	0	---	0.00	30.161 
02:05	46.1	46.1	46.1	81	40.6	0	0	---	0.00	30.161 
02:10	46.1	46.1	46.1	81	40.6	0	0	---	0.00	30.161 
02:15	46.0	46.0	46.0	81	40.5	0	0	---	0.00	30.164 
02:20	46.0	46.0	46.0	81	40.5	0	0	---	0.00	30.164 
02:25	46.0	46.0	46.0	81	40.5	0	0	---	0.00	30.164 
02:30	46.0	46.0	46.0	81	40.5	0	0	---	0.00	30.164 
02:35	46.0	46.0	46.0	82	40.8	0	0	---	0.00	30.164 
02:40	46.0	46.0	46.0	82	40.8	0	0	---	0.00	30.164 
02:45	46.0	46.0	46.0	82	40.8	0	0	---	0.00	30.176 
02:50	46.0	46.0	46.0	83	41.1	0	0	---	0.00	30.176 
02:55	46.0	46.0	46.0	83	41.1	0	0	---	0.00	30.176 
03:00	46.0	46.0	46.0	83	41.1	0	0	---	0.00	30.161 
03:05	46.0	46.0	46.0	82	40.8	0	0	---	0.00	30.161 
03:10	45.8	45.8	45.8	82	40.6	0	0	---	0.00	30.161 
03:15	45.8	45.8	45.8	83	40.9	0	0	---	0.00	30.139 
03:20	45.8	45.8	45.8	83	40.9	0	0	---	0.00	30.139 
03:25	45.8	45.8	45.8	83	40.9	0	0	---	0.00	30.139 
03:30	45.8	45.8	45.8	83	40.9	0	0	---	0.00	30.131 
03:35	45.8	45.8	45.8	83	40.9	0	0	---	0.00	30.131 
03:40	45.8	45.8	45.8	84	41.2	0	0	---	0.00	30.131 
03:45	45.8	45.8	45.8	84	41.2	0	0	---	0.00	30.105 
03:50	45.7	45.7	45.7	84	41.1	0	0	---	0.00	30.105 
03:55	45.7	45.7	45.7	84	41.1	0	0	---	0.00	30.105 
04:00	45.7	45.7	45.7	84	41.1	0	0	---	0.00	30.109 
04:05	45.7	45.7	45.7	84	41.1	0	0	---	0.00	30.109 
04:10	45.7	45.7	45.7	84	41.1	0	0	---	0.00	30.109 
04:15	45.7	45.7	45.7	84	41.1	0	0	---	0.00	30.127 
04:20	45.7	45.7	45.7	85	41.5	0	0	---	0.00	30.127 
04:25	45.7	45.7	45.7	85	41.5	0	0	---	0.00	30.127 
04:30	45.7	45.7	45.7	85	41.5	0	0	---	0.00	30.123 
04:35	45.7	45.7	45.7	85	41.5	0	0	---	0.00	30.123 
04:40	45.7	45.7	45.7	85	41.5	0	0	---	0.00	30.123 
04:45	45.7	45.7	45.7	86	41.8	0	0	---	0.00	30.115 
04:50	45.7	45.7	45.7	86	41.8	0	0	---	0.00	30.115 
04:55	45.7	45.7	45.7	86	41.8	0	0	---	0.00	30.115 
05:00	45.5	45.5	45.5	87	41.9	0	0	---	0.00	30.128 
05:05	45.5	45.5	45.5	87	41.9	0	0	---	0.00	30.128 
05:10	45.5	45.5	45.5	87	41.9	0	0	---	0.00	30.128 
05:15	45.5	45.5	45.5	88	42.2	0	0	---	0.00	30.117 
05:20	45.5	45.5	45.5	88	42.2	0	0	---	0.00	30.117 
05:25	45.5	45.5	45.5	88	42.2	0	0	---	0.00	30.117 
05:30	45.5	45.5	45.5	88	42.2	0	0	---	0.00	30.131 
05:35	45.5	45.5	45.5	88	42.2	0	0	---	0.00	30.131 
05:40	45.7	45.7	45.7	88	42.4	0	0	---	0.00	30.131 
05:45	45.7	45.7	45.7	88	42.4	0	0	---	0.00	30.117 
05:50	45.5	45.5	45.5	88	42.2	0	0	---	0.00	30.117 
05:55	45.5	45.5	45.5	88	42.2	0	0	---	0.00	30.117 
06:00	45.5	45.5	45.5	88	42.2	0	0	---	0.00	30.115 
06:05	45.5	45.5	45.5	87	41.9	0	1	112	0.00	30.115 
06:10	45.7	45.7	45.7	87	42.1	0	1	112	0.00	30.115 
06:15	45.7	45.7	45.7	86	41.8	0	0	---	0.00	30.110 
06:20	45.4	45.4	45.4	85	41.2	0	1	112	0.00	30.110 
06:25	45.2	45.2	45.2	83	40.3	0	0	---	0.00	30.110 
06:30	45.2	45.2	45.2	81	39.7	0	0	---	0.00	30.113 
06:35	45.2	45.2	45.2	78	38.8	0	0	---	0.00	30.113 
06:40	45.2	45.2	45.2	76	38.1	0	0	---	0.00	30.113 
06:45	45.4	45.4	45.4	75	37.9	0	0	---	0.00	30.122 
06:50	45.2	45.2	45.2	73	37.1	0	0	---	0.00	30.122 
06:55	45.2	45.2	45.2	72	36.7	0	0	---	0.00	30.122 
07:00	45.2	45.2	45.2	72	36.7	0	0	---	0.00	30.133 
07:05	45.2	45.2	45.2	72	36.7	0	0	---	0.00	30.133 
07:10	45.2	45.2	45.2	71	36.4	0	0	---	0.00	30.133 
07:15	45.2	45.2	45.2	72	36.7	0	0	---	0.00	30.134 
07:20	45.4	45.4	45.4	71	36.6	0	0	---	0.00	30.134 
07:25	45.4	45.4	45.4	70	36.2	0	1	112	0.00	30.134 
07:30	45.5	45.5	45.5	70	36.3	0	1	112	0.00	30.119 
07:35	45.5	45.5	45.5	71	36.7	0	0	---	0.00	30.119 
07:40	45.5	45.5	45.5	70	36.3	0	0	---	0.00	30.119 
07:45	45.7	45.7	45.7	70	36.5	0	0	---	0.00	30.121 
07:50	45.7	45.7	45.7	71	36.8	0	1	112	0.00	30.121 
07:55	45.7	45.7	45.7	71	36.8	0	0	---	0.00	30.121 
08:00	45.7	45.7	45.7	70	36.5	0	0	---	0.00	30.140 
08:05	45.7	45.7	45.7	70	36.5	0	0	---	0.00	30.140 
08:10	45.7	45.7	45.7	70	36.5	0	0	---	0.00	30.140 
08:15	45.7	45.7	45.7	70	36.5	0	0	---	0.00	30.144 
08:20	45.7	45.7	45.7	70	36.5	0	0	---	0.00	30.144 
08:25	45.8	45.8	45.8	70	36.6	0	0	---	0.00	30.144 
08:30	46.0	46.0	46.0	69	36.4	0	1	112	0.00	30.121 
08:35	46.1	46.1	46.1	69	36.5	0	0	---	0.00	30.121 
08:40	46.2	46.2	46.2	68	36.2	0	2	112	0.00	30.121 
08:45	46.5	46.5	46.5	68	36.5	0	1	112	0.00	30.135 
08:50	46.7	46.7	46.7	66	36.0	0	1	112	0.00	30.135 
08:55	46.7	46.7	46.7	65	35.6	0	1	112	0.00	30.135 
09:00	46.8	46.8	46.8	65	35.7	0	1	112	0.00	30.123 
09:05	47.1	47.1	47.1	66	36.3	0	2	112	0.00	30.123 
09:10	47.4	47.4	47.4	64	35.8	0	2	112	0.00	30.123 
09:15	47.6	47.6	47.6	62	35.2	0	3	158	0.00	30.138 
09:20	47.6	47.6	47.6	63	35.6	0	1	158	0.00	30.138 
09:25	47.6	47.6	47.6	64	36.0	0	1	158	0.00	30.138 
09:30	47.4	47.4	47.4	62	35.0	0	2	158	0.00	30.128 
09:35	47.4	47.4	47.4	64	35.8	0	1	180	0.00	30.128 
09:40	47.4	47.4	47.4	60	34.2	1	3	270	0.00	30.128 
09:45	47.3	47.3	47.3	61	34.5	0	1	270	0.00	30.143 
09:50	47.3	47.3	47.3	62	34.9	0	1	270	0.00	30.143 
09:55	47.3	47.3	47.3	61	34.5	0	1	270	0.00	30.143 
10:00	47.4	47.4	47.4	62	35.0	0	2	270	0.00	30.142 
10:05	47.6	47.6	47.6	62	35.2	0	1	338	0.00	30.142 
10:10	47.9	47.9	47.9	64	36.3	0	1	0	0.00	30.142 
10:15	48.2	48.2	48.2	63	36.2	0	1	0	0.00	30.138 
10:20	48.5	48.5	48.5	62	36.1	0	1	0	0.00	30.138 
10:25	48.6	48.6	48.6	62	36.2	0	1	0	0.00	30.138 
10:30	48.8	48.8	48.8	64	37.2	0	2	0	0.00	30.129 
10:35	48.9	48.9	48.9	61	36.0	1	5	292	0.00	30.129 
10:40	49.2	49.2	49.2	61	36.3	0	1	292	0.00	30.129 
10:45	49.4	49.4	49.4	59	35.7	1	2	292	0.00	30.150 
10:50	49.2	49.2	49.2	59	35.5	0	2	292	0.00	30.150 
10:55	49.1	49.1	49.1	57	34.5	1	3	292	0.00	30.150 
11:00	49.1	49.1	49.1	58	35.0	0	1	292	0.00	30.148 
11:05	49.1	49.1	49.1	58	35.0	1	3	292	0.00	30.148 
11:10	49.2	49.2	49.2	58	35.1	0	3	292	0.00	30.148 
11:15	49.4	49.4	49.4	59	35.7	0	2	292	0.00	30.152 
11:20	49.5	49.5	49.5	55	34.0	1	3	338	0.00	30.152 
11:25	49.6	49.6	49.6	56	34.6	0	2	292	0.00	30.152 
11:30	49.8	49.8	49.8	58	35.6	0	3	315	0.00	30.138 
11:35	50.1	50.1	50.1	55	34.6	1	4	315	0.00	30.138 
11:40	50.2	50.2	50.2	54	34.2	1	3	315	0.00	30.138 
11:45	50.4	50.4	50.4	54	34.4	1	4	315	0.00	30.145 
11:50	50.5	50.5	50.5	55	34.9	0	2	315	0.00	30.145 
11:55	50.4	50.4	50.4	56	35.3	0	3	338	0.00	30.145 
12:00	50.5	50.5	50.5	55	34.9	0	2	338	0.00	30.137 
12:05	51.0	51.0	51.0	53	34.5	0	2	338	0.00	30.137 
12:10	51.1	51.1	51.1	53	34.6	1	3	338	0.00	30.137 
12:15	51.3	51.3	51.3	55	35.7	0	2	338	0.00	30.141 
12:20	51.4	51.4	51.4	52	34.4	1	3	338	0.00	30.141 
12:25	51.0	51.0	51.0	52	34.0	2	4	315	0.00	30.141 
12:30	50.8	50.8	50.8	53	34.3	1	3	315	0.00	30.143 
12:35	50.8	50.8	50.8	53	34.3	1	3	338	0.00	30.143 
12:40	51.0	51.0	51.0	54	34.9	0	4	338	0.00	30.143 
12:45	51.1	51.1	51.1	54	35.0	1	3	0	0.00	30.148 
12:50	51.1	51.1	51.1	53	34.6	2	5	292	0.00	30.148 
12:55	51.1	51.1	51.1	54	35.0	2	4	270	0.00	30.148 
13:00	51.4	51.4	51.4	57	36.7	1	3	315	0.00	30.148 
13:05	51.9	51.9	51.9	55	36.2	1	4	315	0.00	30.148 
13:10	52.2	52.2	52.2	52	35.1	0	3	315	0.00	30.148 
13:15	52.0	52.0	52.0	51	34.4	1	4	22	0.00	30.145 
13:20	51.7	51.7	51.7	49	33.2	1	3	292	0.00	30.145 
13:25	51.4	51.4	51.4	49	32.9	1	3	315	0.00	30.145 
13:30	51.6	51.6	51.6	50	33.6	1	2	292	0.00	30.139 
13:35	51.7	51.7	51.7	50	33.7	0	2	292	0.00	30.139 
13:40	51.9	51.9	51.9	49	33.3	0	3	292	0.00	30.139 
13:45	51.9	51.9	51.9	49	33.3	0	4	292	0.00	30.134 
13:50	52.2	52.2	52.2	49	33.6	1	3	292	0.00	30.134 
13:55	52.3	52.3	52.3	49	33.7	0	2	292	0.00	30.134 
14:00	52.6	52.6	52.6	48	33.5	1	3	292	0.00	30.133 
14:05	52.9	52.9	52.9	48	33.7	1	3	22	0.00	30.133 
14:10	53.3	53.3	53.3	47	33.6	1	3	270	0.00	30.133 
14:15	53.3	53.3	53.3	46	33.1	1	4	292	0.00	30.137 
14:20	53.2	53.2	53.2	44	31.9	2	3	292	0.00	30.137 
14:25	52.9	52.9	52.9	43	31.0	1	3	292	0.00	30.137 
14:30	52.9	52.9	52.9	45	32.1	0	3	292	0.00	30.135 
14:35	53.3	53.3	53.3	47	33.6	1	4	292	0.00	30.135 
14:40	53.8	53.8	53.8	46	33.5	1	3	315	0.00	30.135 
14:45	54.2	54.2	54.2	45	33.3	1	4	270	0.00	30.133 
14:50	54.5	54.5	54.5	43	32.5	1	4	45	0.00	30.133 
14:55	55.3	55.3	55.3	47	35.4	1	5	22	0.00	30.133 
15:00	55.7	55.7	55.7	45	34.7	1	3	0	0.00	30.131 
15:05	55.7	55.7	55.7	42	33.0	1	5	0	0.00	30.131 
15:10	55.1	55.1	55.1	44	33.6	1	3	338	0.00	30.131 
15:15	54.5	54.5	54.5	43	32.5	1	4	338	0.00	30.132 
15:20	54.4	54.4	54.4	46	34.1	1	3	270	0.00	30.132 
15:25	54.8	54.8	54.8	47	35.0	1	4	315	0.00	30.132 
15:30	55.7	55.7	55.7	45	34.7	1	4	315	0.00	30.131 
15:35	55.6	55.6	55.6	45	34.6	2	5	270	0.00	30.131 
15:40	55.6	55.6	55.6	45	34.6	1	3	315	0.00	30.131 
15:45	56.0	56.0	56.0	47	36.1	1	3	315	0.00	30.130 
15:50	56.5	56.5	56.5	46	36.0	1	5	315	0.00	30.130 
15:55	56.5	56.5	56.5	45	35.4	1	3	338	0.00	30.130 
16:00	55.9	55.9	55.9	43	33.7	2	5	292	0.00	30.125 
16:05	55.4	55.4	55.4	46	35.0	1	4	315	0.00	30.125 
16:10	55.4	55.4	55.4	43	33.3	2	6	270	0.00	30.125 
16:15	55.4	55.4	55.4	44	33.9	1	2	270	0.00	30.125 
16:20	55.4	55.4	55.4	44	33.9	2	5	270	0.00	30.125 
16:25	55.7	55.7	55.7	45	34.7	1	4	270	0.00	30.125 
16:30	55.4	55.4	55.4	44	33.9	1	3	270	0.00	30.128 
16:35	55.1	55.1	55.1	46	34.7	1	5	270	0.00	30.128 
16:40	55.4	55.4	55.4	44	33.9	1	5	270	0.00	30.128 
16:45	56.3	56.3	56.3	41	32.9	2	5	315	0.00	30.126 
16:50	56.2	56.2	56.2	41	32.8	2	5	315	0.00	30.126 
16:55	55.7	55.7	55.7	43	33.6	1	4	315	0.00	30.126 
17:00	55.6	55.6	55.6	44	34.0	0	2	0	0.00	30.122 
17:05	55.6	55.6	55.6	43	33.5	0	2	0	0.00	30.122 
17:10	56.3	56.3	56.3	41	32.9	2	4	292	0.00	30.122 
17:15	56.7	56.7	56.7	40	32.7	1	3	338	0.00	30.121 
17:20	56.7	56.7	56.7	43	34.5	2	4	270	0.00	30.121 
17:25	56.9	56.9	56.9	43	34.6	1	4	315	0.00	30.121 
17:30	56.6	56.6	56.6	39	31.9	2	5	270	0.00	30.128 
17:35	56.0	56.0	56.0	41	32.6	1	4	315	0.00	30.128 
17:40	55.6	55.6	55.6	39	31.0	2	4	292	0.00	30.128 
17:45	55.3	55.3	55.3	41	32.0	2	4	270	0.00	30.131 
17:50	55.3	55.3	55.3	40	31.4	2	5	315	0.00	30.131 
17:55	55.1	55.1	55.1	40	31.2	1	3	292	0.00	30.131 
18:00	54.8	54.8	54.8	39	30.3	2	4	315	0.00	30.133 
18:05	55.0	55.0	55.0	41	31.7	1	4	315	0.00	30.133 
18:10	54.8	54.8	54.8	40	30.9	2	4	315	0.00	30.133 
18:15	54.7	54.7	54.7	40	30.9	1	4	270	0.00	30.140 
18:20	54.5	54.5	54.5	43	32.5	1	6	22	0.00	30.140 
18:25	54.5	54.5	54.5	43	32.5	1	9	0	0.00	30.140 
18:30	54.4	54.4	54.4	43	32.4	1	4	338	0.00	30.148 
18:35	54.4	54.4	54.4	43	32.4	1	3	270	0.00	30.148 
18:40	54.2	54.2	54.2	43	32.2	1	4	292	0.00	30.148 
18:45	54.1	54.1	54.1	43	32.1	2	6	270	0.00	30.155 
18:50	53.8	53.8	53.8	44	32.4	2	6	315	0.00	30.155 
18:55	53.8	53.8	53.8	43	31.8	2	5	292	0.00	30.155 
19:00	53.6	53.6	53.6	43	31.7	2	4	315	0.00	30.155 
19:05	53.6	53.6	53.6	42	31.1	1	4	270	0.00	30.155 
19:10	53.6	53.6	53.6	42	31.1	1	3	315	0.00	30.155 
19:15	53.6	53.6	53.6	42	31.1	1	3	292	0.00	30.160 
19:20	53.9	53.9	53.9	43	31.9	0	2	292	0.00	30.160 
19:25	53.9	53.9	53.9	42	31.3	0	2	315	0.00	30.160 
19:30	53.8	53.8	53.8	41	30.7	1	3	292	0.00	30.163 
19:35	53.5	53.5	53.5	41	30.4	0	2	338	0.00	30.163 
19:40	53.5	53.5	53.5	41	30.4	0	1	338	0.00	30.163 
19:45	53.6	53.6	53.6	43	31.7	0	2	338	0.00	30.166 
19:50	53.6	53.6	53.6	41	30.5	0	2	338	0.00	30.166 
19:55	53.3	53.3	53.3	42	30.8	0	3	338	0.00	30.166 
20:00	53.1	53.1	53.1	42	30.6	0	2	315	0.00	30.166 
20:05	52.8	52.8	52.8	42	30.3	0	2	315	0.00	30.166 
20:10	52.6	52.6	52.6	43	30.7	0	1	315	0.00	30.166 
20:15	52.3	52.3	52.3	43	30.5	0	0	---	0.00	30.173 
20:20	51.9	51.9	51.9	43	30.1	0	1	315	0.00	30.173 
20:25	51.7	51.7	51.7	45	31.1	0	0	---	0.00	30.173 
20:30	51.6	51.6	51.6	45	31.0	0	1	315	0.00	30.172 
20:35	51.3	51.3	51.3	44	30.1	0	1	315	0.00	30.172 
20:40	51.1	51.1	51.1	44	30.0	0	3	315	0.00	30.172 
20:45	51.0	51.0	51.0	44	29.9	0	3	315	0.00	30.172 
20:50	51.0	51.0	51.0	44	29.9	0	1	315	0.00	30.172 
20:55	50.7	50.7	50.7	46	30.7	0	0	---	0.00	30.172 
21:00	50.4	50.4	50.4	46	30.4	0	1	315	0.00	30.174 
21:05	50.1	50.1	50.1	47	30.7	0	0	---	0.00	30.174 
21:10	49.9	49.9	49.9	47	30.5	0	0	---	0.00	30.174 
21:15	49.8	49.8	49.8	48	30.9	0	1	315	0.00	30.181 
21:20	49.6	49.6	49.6	48	30.7	0	0	---	0.00	30.181 
21:25	49.5	49.5	49.5	48	30.6	0	0	---	0.00	30.181 
21:30	49.5	49.5	49.5	49	31.1	0	1	315	0.00	30.184 
21:35	49.4	49.4	49.4	49	31.0	0	0	---	0.00	30.184 
21:40	49.4	49.4	49.4	48	30.5	0	1	315	0.00	30.184 
21:45	49.4	49.4	49.4	48	30.5	0	2	315	0.00	30.185 
21:50	49.5	49.5	49.5	48	30.6	0	2	315	0.00	30.185 
21:55	49.6	49.6	49.6	48	30.7	0	3	315	0.00	30.185 
22:00	49.5	49.5	49.5	48	30.6	0	2	315	0.00	30.192 
22:05	49.4	49.4	49.4	49	31.0	0	1	315	0.00	30.192 
22:10	49.4	49.4	49.4	49	31.0	0	1	315	0.00	30.192 
22:15	49.2	49.2	49.2	50	31.4	0	1	315	0.00	30.196 
22:20	49.2	49.2	49.2	49	30.9	0	2	315	0.00	30.196 
22:25	49.2	49.2	49.2	48	30.4	0	1	315	0.00	30.196 
22:30	49.2	49.2	49.2	48	30.4	0	2	315	0.00	30.199 
22:35	49.2	49.2	49.2	48	30.4	0	1	315	0.00	30.199 
22:40	49.1	49.1	49.1	48	30.3	0	1	315	0.00	30.199 
22:45	49.1	49.1	49.1	48	30.3	0	3	315	0.00	30.204 
22:50	49.1	49.1	49.1	47	29.7	0	1	315	0.00	30.204 
22:55	49.1	49.1	49.1	47	29.7	0	3	315	0.00	30.204 
23:00	49.1	49.1	49.1	48	30.3	0	1	315	0.00	30.203 
23:05	48.9	48.9	48.9	47	29.6	0	1	315	0.00	30.203 
23:10	48.9	48.9	48.9	47	29.6	0	1	315	0.00	30.203 
23:15	48.9	48.9	48.9	48	30.1	0	0	---	0.00	30.205 
23:20	48.8	48.8	48.8	48	30.0	0	2	338	0.00	30.205 
23:25	48.8	48.8	48.8	48	30.0	0	2	338	0.00	30.205 
23:30	48.6	48.6	48.6	48	29.8	0	2	338	0.00	30.207 
23:35	48.6	48.6	48.6	48	29.8	0	1	338	0.00	30.207 
23:40	48.6	48.6	48.6	49	30.3	0	1	338	0.00	30.207 
23:45	48.6	48.6	48.6	49	30.3	0	1	338	0.00	30.206 
23:50	48.5	48.5	48.5	49	30.2	0	1	338	0.00	30.206 
23:55	48.5	48.5	48.5	49	30.2	0	1	338	0.00	30.206 

CoCoRaHS
IN-AL-39
A2 Web Hosting
Creative Commons License
GoDaddy
search engine by freefind advanced

loaded 2018-11-19 18:52:29 • last modified 2010-11-18 10:43:29
Privacy PolicyDisclaimer
• wx.awcolley.com is powered by PmWiki v.2002016 •
• all content (unless otherwise noted) © 2018 A W Colley